sensor_id;sensor_type;location;lat;lon;timestamp;P1;durP1;ratioP1;P2;durP2;ratioP2
38611;SDS011;24368;52.156;20.788;2023-11-21T00:05:00;14.70;;;11.80;;
38611;SDS011;24368;52.156;20.788;2023-11-21T00:10:01;13.40;;;11.90;;
38611;SDS011;24368;52.156;20.788;2023-11-21T00:15:03;15.50;;;13.10;;
38611;SDS011;24368;52.156;20.788;2023-11-21T00:20:14;13.50;;;12.10;;
38611;SDS011;24368;52.156;20.788;2023-11-21T00:25:15;15.00;;;11.90;;
38611;SDS011;24368;52.156;20.788;2023-11-21T00:30:18;16.30;;;12.00;;
38611;SDS011;24368;52.156;20.788;2023-11-21T00:35:21;14.10;;;12.30;;
38611;SDS011;24368;52.156;20.788;2023-11-21T00:40:22;16.90;;;13.40;;
38611;SDS011;24368;52.156;20.788;2023-11-21T00:45:23;17.40;;;14.00;;
38611;SDS011;24368;52.156;20.788;2023-11-21T00:50:24;17.40;;;14.80;;
38611;SDS011;24368;52.156;20.788;2023-11-21T00:55:25;20.40;;;14.40;;
38611;SDS011;24368;52.156;20.788;2023-11-21T01:00:27;16.10;;;13.10;;
38611;SDS011;24368;52.156;20.788;2023-11-21T01:05:28;17.10;;;13.90;;
38611;SDS011;24368;52.156;20.788;2023-11-21T01:10:30;20.80;;;17.00;;
38611;SDS011;24368;52.156;20.788;2023-11-21T01:15:31;22.50;;;16.30;;
38611;SDS011;24368;52.156;20.788;2023-11-21T01:20:32;21.90;;;16.70;;
38611;SDS011;24368;52.156;20.788;2023-11-21T01:25:33;22.20;;;17.90;;
38611;SDS011;24368;52.156;20.788;2023-11-21T01:30:34;22.50;;;17.30;;
38611;SDS011;24368;52.156;20.788;2023-11-21T01:35:36;23.50;;;18.20;;
38611;SDS011;24368;52.156;20.788;2023-11-21T01:40:37;24.60;;;18.80;;
38611;SDS011;24368;52.156;20.788;2023-11-21T01:45:38;27.30;;;18.50;;
38611;SDS011;24368;52.156;20.788;2023-11-21T01:50:41;25.90;;;17.20;;
38611;SDS011;24368;52.156;20.788;2023-11-21T01:55:43;22.00;;;16.70;;
38611;SDS011;24368;52.156;20.788;2023-11-21T02:00:46;23.70;;;18.70;;
38611;SDS011;24368;52.156;20.788;2023-11-21T02:05:49;24.00;;;18.00;;
38611;SDS011;24368;52.156;20.788;2023-11-21T02:10:51;23.90;;;18.80;;
38611;SDS011;24368;52.156;20.788;2023-11-21T02:15:52;22.40;;;18.10;;
38611;SDS011;24368;52.156;20.788;2023-11-21T02:20:55;23.80;;;17.90;;
38611;SDS011;24368;52.156;20.788;2023-11-21T02:25:57;24.10;;;18.90;;
38611;SDS011;24368;52.156;20.788;2023-11-21T02:30:58;24.70;;;18.70;;
38611;SDS011;24368;52.156;20.788;2023-11-21T02:36:00;22.30;;;18.00;;
38611;SDS011;24368;52.156;20.788;2023-11-21T02:41:02;27.00;;;18.80;;
38611;SDS011;24368;52.156;20.788;2023-11-21T02:46:04;23.50;;;18.00;;
38611;SDS011;24368;52.156;20.788;2023-11-21T02:51:06;22.80;;;17.20;;
38611;SDS011;24368;52.156;20.788;2023-11-21T02:56:07;22.10;;;17.60;;
38611;SDS011;24368;52.156;20.788;2023-11-21T03:01:08;23.90;;;17.30;;
38611;SDS011;24368;52.156;20.788;2023-11-21T03:06:10;19.20;;;15.20;;
38611;SDS011;24368;52.156;20.788;2023-11-21T03:11:11;18.90;;;14.90;;
38611;SDS011;24368;52.156;20.788;2023-11-21T03:16:14;17.00;;;13.00;;
38611;SDS011;24368;52.156;20.788;2023-11-21T03:21:16;15.30;;;12.80;;
38611;SDS011;24368;52.156;20.788;2023-11-21T03:26:17;15.20;;;13.50;;
38611;SDS011;24368;52.156;20.788;2023-11-21T03:31:18;17.20;;;15.10;;
38611;SDS011;24368;52.156;20.788;2023-11-21T03:36:19;16.90;;;14.20;;
38611;SDS011;24368;52.156;20.788;2023-11-21T03:41:21;15.30;;;13.50;;
38611;SDS011;24368;52.156;20.788;2023-11-21T03:46:22;16.50;;;13.50;;
38611;SDS011;24368;52.156;20.788;2023-11-21T03:51:23;16.80;;;14.10;;
38611;SDS011;24368;52.156;20.788;2023-11-21T03:56:24;15.90;;;14.00;;
38611;SDS011;24368;52.156;20.788;2023-11-21T04:01:25;17.50;;;15.00;;
38611;SDS011;24368;52.156;20.788;2023-11-21T04:06:26;18.00;;;15.10;;
38611;SDS011;24368;52.156;20.788;2023-11-21T04:11:27;17.40;;;15.00;;
38611;SDS011;24368;52.156;20.788;2023-11-21T04:16:30;17.30;;;13.70;;
38611;SDS011;24368;52.156;20.788;2023-11-21T04:21:31;16.50;;;14.30;;
38611;SDS011;24368;52.156;20.788;2023-11-21T04:26:33;14.90;;;13.30;;
38611;SDS011;24368;52.156;20.788;2023-11-21T04:31:35;16.20;;;14.50;;
38611;SDS011;24368;52.156;20.788;2023-11-21T04:36:36;15.30;;;13.00;;
38611;SDS011;24368;52.156;20.788;2023-11-21T04:41:37;17.40;;;13.90;;
38611;SDS011;24368;52.156;20.788;2023-11-21T04:46:41;15.60;;;14.00;;
38611;SDS011;24368;52.156;20.788;2023-11-21T04:51:42;13.70;;;12.10;;
38611;SDS011;24368;52.156;20.788;2023-11-21T04:56:43;13.80;;;12.30;;
38611;SDS011;24368;52.156;20.788;2023-11-21T05:01:44;13.60;;;12.20;;
38611;SDS011;24368;52.156;20.788;2023-11-21T05:06:45;13.60;;;12.20;;
38611;SDS011;24368;52.156;20.788;2023-11-21T05:11:47;13.10;;;11.60;;
38611;SDS011;24368;52.156;20.788;2023-11-21T05:16:48;15.30;;;11.70;;
38611;SDS011;24368;52.156;20.788;2023-11-21T05:21:49;12.10;;;10.90;;
38611;SDS011;24368;52.156;20.788;2023-11-21T05:26:50;10.60;;;9.50;;
38611;SDS011;24368;52.156;20.788;2023-11-21T05:31:51;10.60;;;9.40;;
38611;SDS011;24368;52.156;20.788;2023-11-21T05:36:53;11.50;;;9.60;;
38611;SDS011;24368;52.156;20.788;2023-11-21T05:41:54;12.40;;;11.00;;
38611;SDS011;24368;52.156;20.788;2023-11-21T05:46:56;12.60;;;11.30;;
38611;SDS011;24368;52.156;20.788;2023-11-21T05:51:59;11.90;;;10.70;;
38611;SDS011;24368;52.156;20.788;2023-11-21T05:57:00;10.50;;;9.50;;
38611;SDS011;24368;52.156;20.788;2023-11-21T06:02:01;11.60;;;10.10;;
38611;SDS011;24368;52.156;20.788;2023-11-21T06:07:03;12.50;;;11.10;;
38611;SDS011;24368;52.156;20.788;2023-11-21T06:12:05;12.00;;;10.60;;
38611;SDS011;24368;52.156;20.788;2023-11-21T06:17:06;13.10;;;11.30;;
38611;SDS011;24368;52.156;20.788;2023-11-21T06:22:07;10.60;;;9.50;;
38611;SDS011;24368;52.156;20.788;2023-11-21T06:27:09;11.00;;;9.80;;
38611;SDS011;24368;52.156;20.788;2023-11-21T06:32:10;9.90;;;8.60;;
38611;SDS011;24368;52.156;20.788;2023-11-21T06:37:11;9.90;;;8.90;;
38611;SDS011;24368;52.156;20.788;2023-11-21T06:42:12;10.20;;;8.70;;
38611;SDS011;24368;52.156;20.788;2023-11-21T06:47:13;10.50;;;9.10;;
38611;SDS011;24368;52.156;20.788;2023-11-21T06:52:15;11.70;;;10.30;;
38611;SDS011;24368;52.156;20.788;2023-11-21T06:57:16;11.80;;;10.00;;
38611;SDS011;24368;52.156;20.788;2023-11-21T07:02:18;11.90;;;10.10;;
38611;SDS011;24368;52.156;20.788;2023-11-21T07:07:19;11.60;;;9.80;;
38611;SDS011;24368;52.156;20.788;2023-11-21T07:12:20;10.60;;;8.90;;
38611;SDS011;24368;52.156;20.788;2023-11-21T07:17:24;10.50;;;9.30;;
38611;SDS011;24368;52.156;20.788;2023-11-21T07:22:25;10.40;;;9.30;;
38611;SDS011;24368;52.156;20.788;2023-11-21T07:27:26;11.20;;;9.70;;
38611;SDS011;24368;52.156;20.788;2023-11-21T07:32:27;11.90;;;10.20;;
38611;SDS011;24368;52.156;20.788;2023-11-21T07:37:28;13.20;;;10.30;;
38611;SDS011;24368;52.156;20.788;2023-11-21T07:42:29;13.10;;;9.50;;
38611;SDS011;24368;52.156;20.788;2023-11-21T07:47:30;12.90;;;9.90;;
38611;SDS011;24368;52.156;20.788;2023-11-21T07:52:35;9.20;;;8.30;;
38611;SDS011;24368;52.156;20.788;2023-11-21T07:57:36;10.80;;;9.40;;
38611;SDS011;24368;52.156;20.788;2023-11-21T08:02:37;10.90;;;9.50;;
38611;SDS011;24368;52.156;20.788;2023-11-21T08:12:43;12.50;;;9.90;;
38611;SDS011;24368;52.156;20.788;2023-11-21T08:17:45;13.50;;;9.60;;
38611;SDS011;24368;52.156;20.788;2023-11-21T08:22:47;13.70;;;9.30;;
38611;SDS011;24368;52.156;20.788;2023-11-21T08:27:48;9.50;;;8.50;;
38611;SDS011;24368;52.156;20.788;2023-11-21T08:32:50;9.30;;;8.20;;
38611;SDS011;24368;52.156;20.788;2023-11-21T08:37:52;10.50;;;9.50;;
38611;SDS011;24368;52.156;20.788;2023-11-21T08:42:53;11.50;;;10.40;;
38611;SDS011;24368;52.156;20.788;2023-11-21T08:47:55;12.00;;;10.80;;
38611;SDS011;24368;52.156;20.788;2023-11-21T08:52:56;11.50;;;9.80;;
38611;SDS011;24368;52.156;20.788;2023-11-21T08:57:57;11.00;;;9.60;;
38611;SDS011;24368;52.156;20.788;2023-11-21T09:03:00;9.60;;;8.70;;
38611;SDS011;24368;52.156;20.788;2023-11-21T09:08:03;10.00;;;8.80;;
38611;SDS011;24368;52.156;20.788;2023-11-21T09:13:04;10.20;;;9.20;;
38611;SDS011;24368;52.156;20.788;2023-11-21T09:18:05;14.70;;;11.00;;
38611;SDS011;24368;52.156;20.788;2023-11-21T09:23:06;11.30;;;9.80;;
38611;SDS011;24368;52.156;20.788;2023-11-21T09:28:07;12.30;;;10.70;;
38611;SDS011;24368;52.156;20.788;2023-11-21T09:33:09;13.10;;;10.50;;
38611;SDS011;24368;52.156;20.788;2023-11-21T09:38:11;14.80;;;10.80;;
38611;SDS011;24368;52.156;20.788;2023-11-21T09:43:15;13.40;;;10.90;;
38611;SDS011;24368;52.156;20.788;2023-11-21T09:48:18;16.60;;;12.50;;
38611;SDS011;24368;52.156;20.788;2023-11-21T09:53:21;12.40;;;11.10;;
38611;SDS011;24368;52.156;20.788;2023-11-21T09:58:25;11.80;;;10.60;;
38611;SDS011;24368;52.156;20.788;2023-11-21T10:03:28;13.00;;;11.20;;
38611;SDS011;24368;52.156;20.788;2023-11-21T10:08:29;14.10;;;11.80;;
38611;SDS011;24368;52.156;20.788;2023-11-21T10:13:32;14.70;;;12.40;;
38611;SDS011;24368;52.156;20.788;2023-11-21T10:18:33;16.10;;;13.30;;
38611;SDS011;24368;52.156;20.788;2023-11-21T10:23:38;17.70;;;14.00;;
38611;SDS011;24368;52.156;20.788;2023-11-21T10:28:39;17.20;;;12.20;;
38611;SDS011;24368;52.156;20.788;2023-11-21T10:33:40;14.70;;;11.80;;
38611;SDS011;24368;52.156;20.788;2023-11-21T10:38:42;14.70;;;12.20;;
38611;SDS011;24368;52.156;20.788;2023-11-21T10:43:43;13.60;;;11.10;;
38611;SDS011;24368;52.156;20.788;2023-11-21T10:48:44;14.20;;;12.70;;
38611;SDS011;24368;52.156;20.788;2023-11-21T10:53:46;14.80;;;12.40;;
38611;SDS011;24368;52.156;20.788;2023-11-21T10:58:48;16.20;;;14.00;;
38611;SDS011;24368;52.156;20.788;2023-11-21T11:03:52;16.90;;;14.40;;
38611;SDS011;24368;52.156;20.788;2023-11-21T11:08:55;15.40;;;13.20;;
38611;SDS011;24368;52.156;20.788;2023-11-21T11:13:57;13.90;;;11.60;;
38611;SDS011;24368;52.156;20.788;2023-11-21T11:19:00;15.70;;;13.00;;
38611;SDS011;24368;52.156;20.788;2023-11-21T11:29:35;18.80;;;15.00;;
38611;SDS011;24368;52.156;20.788;2023-11-21T11:45:46;17.30;;;13.60;;
38611;SDS011;24368;52.156;20.788;2023-11-21T11:51:02;16.70;;;14.10;;
38611;SDS011;24368;52.156;20.788;2023-11-21T12:01:26;16.80;;;14.30;;
38611;SDS011;24368;52.156;20.788;2023-11-21T12:06:34;19.10;;;13.80;;
38611;SDS011;24368;52.156;20.788;2023-11-21T12:11:36;14.90;;;13.30;;
38611;SDS011;24368;52.156;20.788;2023-11-21T12:16:37;16.30;;;14.00;;
38611;SDS011;24368;52.156;20.788;2023-11-21T12:21:38;15.80;;;13.90;;
38611;SDS011;24368;52.156;20.788;2023-11-21T12:26:42;17.70;;;14.50;;
38611;SDS011;24368;52.156;20.788;2023-11-21T12:31:43;15.30;;;13.60;;
38611;SDS011;24368;52.156;20.788;2023-11-21T12:36:46;15.80;;;13.20;;
38611;SDS011;24368;52.156;20.788;2023-11-21T12:41:47;15.40;;;13.00;;
38611;SDS011;24368;52.156;20.788;2023-11-21T12:46:49;16.60;;;14.20;;
38611;SDS011;24368;52.156;20.788;2023-11-21T12:51:51;16.30;;;14.00;;
38611;SDS011;24368;52.156;20.788;2023-11-21T12:56:52;18.00;;;14.80;;
38611;SDS011;24368;52.156;20.788;2023-11-21T13:01:54;20.10;;;16.20;;
38611;SDS011;24368;52.156;20.788;2023-11-21T13:07:03;16.70;;;14.20;;
38611;SDS011;24368;52.156;20.788;2023-11-21T13:12:15;17.20;;;14.40;;
38611;SDS011;24368;52.156;20.788;2023-11-21T13:17:19;16.60;;;13.90;;
38611;SDS011;24368;52.156;20.788;2023-11-21T13:22:23;17.90;;;14.50;;
38611;SDS011;24368;52.156;20.788;2023-11-21T13:27:25;17.60;;;15.70;;
38611;SDS011;24368;52.156;20.788;2023-11-21T13:32:27;18.10;;;15.50;;
38611;SDS011;24368;52.156;20.788;2023-11-21T13:37:28;16.50;;;14.50;;
38611;SDS011;24368;52.156;20.788;2023-11-21T13:42:32;19.10;;;15.30;;
38611;SDS011;24368;52.156;20.788;2023-11-21T13:47:34;16.50;;;14.20;;
38611;SDS011;24368;52.156;20.788;2023-11-21T13:52:38;16.70;;;14.60;;
38611;SDS011;24368;52.156;20.788;2023-11-21T13:57:39;17.70;;;15.30;;
38611;SDS011;24368;52.156;20.788;2023-11-21T14:02:40;19.00;;;16.30;;
38611;SDS011;24368;52.156;20.788;2023-11-21T14:07:44;18.70;;;16.00;;
38611;SDS011;24368;52.156;20.788;2023-11-21T14:12:48;20.40;;;15.70;;
38611;SDS011;24368;52.156;20.788;2023-11-21T14:17:50;20.30;;;15.60;;
38611;SDS011;24368;52.156;20.788;2023-11-21T14:22:51;19.40;;;14.40;;
38611;SDS011;24368;52.156;20.788;2023-11-21T14:27:52;18.80;;;15.30;;
38611;SDS011;24368;52.156;20.788;2023-11-21T14:32:54;16.90;;;13.90;;
38611;SDS011;24368;52.156;20.788;2023-11-21T14:37:55;17.00;;;14.30;;
38611;SDS011;24368;52.156;20.788;2023-11-21T14:42:58;17.40;;;15.30;;
38611;SDS011;24368;52.156;20.788;2023-11-21T14:48:01;20.30;;;15.70;;
38611;SDS011;24368;52.156;20.788;2023-11-21T14:53:05;19.30;;;17.10;;
38611;SDS011;24368;52.156;20.788;2023-11-21T14:58:07;21.00;;;17.50;;
38611;SDS011;24368;52.156;20.788;2023-11-21T15:03:13;19.70;;;16.50;;
38611;SDS011;24368;52.156;20.788;2023-11-21T15:08:44;20.60;;;17.10;;
38611;SDS011;24368;52.156;20.788;2023-11-21T15:13:49;20.60;;;18.20;;
38611;SDS011;24368;52.156;20.788;2023-11-21T15:18:52;23.20;;;19.20;;
38611;SDS011;24368;52.156;20.788;2023-11-21T15:23:57;21.30;;;18.70;;
38611;SDS011;24368;52.156;20.788;2023-11-21T15:28:58;23.10;;;19.20;;
38611;SDS011;24368;52.156;20.788;2023-11-21T15:33:59;22.60;;;19.10;;
38611;SDS011;24368;52.156;20.788;2023-11-21T15:39:01;23.30;;;19.50;;
38611;SDS011;24368;52.156;20.788;2023-11-21T15:44:02;23.00;;;17.90;;
38611;SDS011;24368;52.156;20.788;2023-11-21T15:49:05;17.50;;;15.70;;
38611;SDS011;24368;52.156;20.788;2023-11-21T15:54:13;18.00;;;14.70;;
38611;SDS011;24368;52.156;20.788;2023-11-21T15:59:14;19.00;;;15.30;;
38611;SDS011;24368;52.156;20.788;2023-11-21T16:04:17;17.90;;;14.90;;
38611;SDS011;24368;52.156;20.788;2023-11-21T16:09:18;18.70;;;15.00;;
38611;SDS011;24368;52.156;20.788;2023-11-21T16:14:29;15.70;;;13.50;;
38611;SDS011;24368;52.156;20.788;2023-11-21T16:19:46;15.70;;;13.50;;
38611;SDS011;24368;52.156;20.788;2023-11-21T16:24:47;17.90;;;14.20;;
38611;SDS011;24368;52.156;20.788;2023-11-21T16:29:48;15.70;;;12.20;;
38611;SDS011;24368;52.156;20.788;2023-11-21T16:34:50;13.10;;;11.60;;
38611;SDS011;24368;52.156;20.788;2023-11-21T16:39:51;12.80;;;10.90;;
38611;SDS011;24368;52.156;20.788;2023-11-21T16:44:52;15.60;;;12.00;;
38611;SDS011;24368;52.156;20.788;2023-11-21T16:49:54;13.10;;;11.70;;
38611;SDS011;24368;52.156;20.788;2023-11-21T16:54:55;13.90;;;11.40;;
38611;SDS011;24368;52.156;20.788;2023-11-21T16:59:56;15.10;;;13.40;;
38611;SDS011;24368;52.156;20.788;2023-11-21T17:04:57;21.90;;;16.50;;
38611;SDS011;24368;52.156;20.788;2023-11-21T17:09:59;19.20;;;15.30;;
38611;SDS011;24368;52.156;20.788;2023-11-21T17:15:00;18.00;;;14.50;;
38611;SDS011;24368;52.156;20.788;2023-11-21T17:20:02;15.00;;;12.50;;
38611;SDS011;24368;52.156;20.788;2023-11-21T17:25:09;16.20;;;12.80;;
38611;SDS011;24368;52.156;20.788;2023-11-21T17:30:10;14.30;;;11.30;;
38611;SDS011;24368;52.156;20.788;2023-11-21T17:35:12;15.40;;;11.50;;
38611;SDS011;24368;52.156;20.788;2023-11-21T17:40:14;16.20;;;12.50;;
38611;SDS011;24368;52.156;20.788;2023-11-21T17:45:16;13.60;;;12.00;;
38611;SDS011;24368;52.156;20.788;2023-11-21T17:50:17;17.30;;;12.80;;
38611;SDS011;24368;52.156;20.788;2023-11-21T17:55:18;15.90;;;13.20;;
38611;SDS011;24368;52.156;20.788;2023-11-21T18:00:20;17.20;;;13.00;;
38611;SDS011;24368;52.156;20.788;2023-11-21T18:05:21;14.80;;;12.70;;
38611;SDS011;24368;52.156;20.788;2023-11-21T18:10:24;16.90;;;13.40;;
38611;SDS011;24368;52.156;20.788;2023-11-21T18:15:25;15.30;;;12.50;;
38611;SDS011;24368;52.156;20.788;2023-11-21T18:20:26;17.20;;;14.00;;
38611;SDS011;24368;52.156;20.788;2023-11-21T18:25:28;17.70;;;13.70;;
38611;SDS011;24368;52.156;20.788;2023-11-21T18:30:29;16.80;;;13.30;;
38611;SDS011;24368;52.156;20.788;2023-11-21T18:35:31;18.30;;;13.30;;
38611;SDS011;24368;52.156;20.788;2023-11-21T18:40:32;17.30;;;14.10;;
38611;SDS011;24368;52.156;20.788;2023-11-21T18:45:34;17.90;;;14.00;;
38611;SDS011;24368;52.156;20.788;2023-11-21T18:50:35;16.90;;;13.20;;
38611;SDS011;24368;52.156;20.788;2023-11-21T18:55:36;15.10;;;12.10;;
38611;SDS011;24368;52.156;20.788;2023-11-21T19:00:39;17.50;;;12.40;;
38611;SDS011;24368;52.156;20.788;2023-11-21T19:05:40;16.20;;;12.30;;
38611;SDS011;24368;52.156;20.788;2023-11-21T19:10:41;15.90;;;12.60;;
38611;SDS011;24368;52.156;20.788;2023-11-21T19:15:43;16.70;;;13.10;;
38611;SDS011;24368;52.156;20.788;2023-11-21T19:20:44;14.40;;;11.50;;
38611;SDS011;24368;52.156;20.788;2023-11-21T19:25:46;18.10;;;12.30;;
38611;SDS011;24368;52.156;20.788;2023-11-21T19:30:47;14.30;;;11.60;;
38611;SDS011;24368;52.156;20.788;2023-11-21T19:35:48;17.80;;;12.50;;
38611;SDS011;24368;52.156;20.788;2023-11-21T19:40:49;17.90;;;12.40;;
38611;SDS011;24368;52.156;20.788;2023-11-21T19:45:50;16.70;;;11.50;;
38611;SDS011;24368;52.156;20.788;2023-11-21T19:50:52;14.60;;;11.10;;
38611;SDS011;24368;52.156;20.788;2023-11-21T19:55:53;13.90;;;11.20;;
38611;SDS011;24368;52.156;20.788;2023-11-21T20:00:55;13.40;;;10.60;;
38611;SDS011;24368;52.156;20.788;2023-11-21T20:05:56;14.80;;;11.00;;
38611;SDS011;24368;52.156;20.788;2023-11-21T20:10:57;16.20;;;10.50;;
38611;SDS011;24368;52.156;20.788;2023-11-21T20:15:59;14.30;;;10.50;;
38611;SDS011;24368;52.156;20.788;2023-11-21T20:21:00;13.50;;;10.60;;
38611;SDS011;24368;52.156;20.788;2023-11-21T20:26:02;11.70;;;9.20;;
38611;SDS011;24368;52.156;20.788;2023-11-21T20:31:04;13.10;;;9.40;;
38611;SDS011;24368;52.156;20.788;2023-11-21T20:36:06;13.80;;;10.10;;
38611;SDS011;24368;52.156;20.788;2023-11-21T20:41:08;9.60;;;8.50;;
38611;SDS011;24368;52.156;20.788;2023-11-21T20:46:13;10.80;;;9.20;;
38611;SDS011;24368;52.156;20.788;2023-11-21T20:51:14;10.50;;;8.20;;
38611;SDS011;24368;52.156;20.788;2023-11-21T20:56:16;9.20;;;7.10;;
38611;SDS011;24368;52.156;20.788;2023-11-21T21:01:17;9.60;;;8.20;;
38611;SDS011;24368;52.156;20.788;2023-11-21T21:06:19;11.20;;;8.40;;
38611;SDS011;24368;52.156;20.788;2023-11-21T21:11:22;11.90;;;9.30;;
38611;SDS011;24368;52.156;20.788;2023-11-21T21:16:23;13.20;;;9.40;;
38611;SDS011;24368;52.156;20.788;2023-11-21T21:21:31;11.50;;;8.60;;
38611;SDS011;24368;52.156;20.788;2023-11-21T21:26:33;12.80;;;7.80;;
38611;SDS011;24368;52.156;20.788;2023-11-21T21:31:35;12.50;;;8.00;;
38611;SDS011;24368;52.156;20.788;2023-11-21T21:36:37;10.50;;;8.40;;
38611;SDS011;24368;52.156;20.788;2023-11-21T21:41:40;10.80;;;8.70;;
38611;SDS011;24368;52.156;20.788;2023-11-21T21:46:41;14.70;;;10.30;;
38611;SDS011;24368;52.156;20.788;2023-11-21T21:51:42;15.20;;;10.50;;
38611;SDS011;24368;52.156;20.788;2023-11-21T21:56:43;12.30;;;9.90;;
38611;SDS011;24368;52.156;20.788;2023-11-21T22:01:45;11.90;;;10.00;;
38611;SDS011;24368;52.156;20.788;2023-11-21T22:06:47;12.40;;;10.00;;
38611;SDS011;24368;52.156;20.788;2023-11-21T22:11:48;13.20;;;9.90;;
38611;SDS011;24368;52.156;20.788;2023-11-21T22:16:50;12.10;;;9.20;;
38611;SDS011;24368;52.156;20.788;2023-11-21T22:21:51;12.90;;;8.80;;
38611;SDS011;24368;52.156;20.788;2023-11-21T22:26:53;10.00;;;7.90;;
38611;SDS011;24368;52.156;20.788;2023-11-21T22:31:56;12.50;;;9.00;;
38611;SDS011;24368;52.156;20.788;2023-11-21T22:36:57;12.90;;;10.30;;
38611;SDS011;24368;52.156;20.788;2023-11-21T22:41:58;12.50;;;9.10;;
38611;SDS011;24368;52.156;20.788;2023-11-21T22:47:00;12.30;;;9.30;;
38611;SDS011;24368;52.156;20.788;2023-11-21T22:52:02;11.50;;;9.00;;
38611;SDS011;24368;52.156;20.788;2023-11-21T22:57:03;8.90;;;7.20;;
38611;SDS011;24368;52.156;20.788;2023-11-21T23:02:05;9.20;;;7.50;;
38611;SDS011;24368;52.156;20.788;2023-11-21T23:07:06;10.10;;;7.70;;
38611;SDS011;24368;52.156;20.788;2023-11-21T23:12:07;9.20;;;7.30;;
38611;SDS011;24368;52.156;20.788;2023-11-21T23:17:08;9.10;;;7.10;;
38611;SDS011;24368;52.156;20.788;2023-11-21T23:22:10;10.10;;;8.10;;
38611;SDS011;24368;52.156;20.788;2023-11-21T23:27:11;12.80;;;7.80;;
38611;SDS011;24368;52.156;20.788;2023-11-21T23:32:12;9.90;;;7.00;;
38611;SDS011;24368;52.156;20.788;2023-11-21T23:37:15;10.70;;;6.80;;
38611;SDS011;24368;52.156;20.788;2023-11-21T23:42:17;9.60;;;6.30;;
38611;SDS011;24368;52.156;20.788;2023-11-21T23:47:20;10.00;;;6.70;;
38611;SDS011;24368;52.156;20.788;2023-11-21T23:52:22;9.10;;;6.70;;
38611;SDS011;24368;52.156;20.788;2023-11-21T23:57:23;8.30;;;6.60;;
